Latest Weather Observations for Liawenee

IDT60801

Issued at 12:31 am EST Sunday 31 May 2015 (issued every 30 minutes, with the page automatically refreshed every 10 minutes)

About weather observations | Map of weather stations | Latest weather observations for TAS | Other Formats
Station Details ID: 096033 Name: LIAWENEE Lat: -41.90 Lon: 146.67 Height: 1057.0 m
Data from the previous 72 hours. | See also: Recent months at Liawenee
Date/Time
EST
Temp
°C
App
Temp
°C
Dew
Point
Rel
Hum
%
Delta-T
°C
Wind Press
QNH
hPa
Press
MSL
hPa
Rain
since 9 am
mm
Dir
 
Spd
km/h
Gust
km/h
Spd
kts
Gust
kts
31/12:30am 2.1 -8.2 -1.2 79 1.3 WNW 43 59 23 32 1000.8 1001.5 2.2
31/12:00am 2.0 -8.9 -1.1 80 1.2 WNW 46 72 25 39 1000.9 1001.6 2.2
 
Date/Time
EST
Temp
°C
App
Temp
°C
Dew
Point
Rel
Hum
%
Delta-T
°C
Wind Press
QNH
hPa
Press
MSL
hPa
Rain
since 9 am
mm
Dir
 
Spd
km/h
Gust
km/h
Spd
kts
Gust
kts
30/11:30pm 1.5 -10.2 -1.9 78 1.3 WNW 50 70 27 38 1000.9 1001.6 2.2
30/11:00pm 1.7 -10.0 -1.7 78 1.3 WNW 50 76 27 41 1000.9 1001.6 2.2
30/10:30pm 1.6 -10.1 -1.8 78 1.3 WNW 50 70 27 38 1001.0 1001.8 2.2
30/10:00pm 1.4 -10.7 -1.7 80 1.2 WNW 52 80 28 43 1001.0 1001.8 2.2
30/09:30pm 1.2 -10.6 -2.0 79 1.2 WNW 50 76 27 41 1001.2 1002.0 2.2
30/09:00pm 1.3 -9.6 -1.4 82 1.0 WNW 46 67 25 36 1001.6 1002.3 2.2
30/08:30pm 1.2 -9.2 -1.5 82 1.0 W 43 63 23 34 1002.0 1002.8 2.2
30/08:00pm 1.3 -9.2 -1.4 82 1.0 W 44 65 24 35 1002.2 1003.0 2.2
30/07:32pm 1.5 -7.3 -1.2 82 1.0 W 35 54 19 29 1002.2 1003.0 2.2
30/07:30pm 1.5 -7.7 -1.2 82 1.0 W 37 54 20 29 1002.3 1003.1 2.2
30/07:00pm 1.5 -9.4 -1.6 80 1.2 W 46 69 25 37 1002.2 1003.0 2.2
30/06:33pm 1.4 -8.1 -0.8 85 0.8 W 39 57 21 31 1002.3 1003.1 2.2
30/06:30pm 1.3 -8.6 -1.1 84 0.9 W 41 57 22 31 1002.3 1003.1 2.2
30/06:00pm 1.3 -8.7 -1.6 81 1.1 W 41 65 22 35 1002.4 1003.2 2.2
30/05:30pm 1.4 -8.2 -1.7 80 1.2 WNW 39 57 21 31 1002.8 1003.6 2.2
30/05:00pm 1.6 -6.9 -1.6 79 1.2 WNW 33 52 18 28 1002.9 1003.7 2.2
30/04:33pm 2.0 -5.8 -0.9 81 1.1 WNW 30 48 16 26 1002.8 1003.6 2.2
30/04:30pm 1.9 -5.9 -0.8 82 1.0 W 30 46 16 25 1002.8 1003.6 2.2
30/04:00pm 2.7 -6.4 -0.4 80 1.2 W 37 57 20 31 1002.6 1003.3 2.2
30/03:30pm 2.7 -7.0 0.4 85 0.9 W 41 61 22 33 1002.2 1003.0 2.2
30/03:00pm 3.2 -6.4 1.1 86 0.9 W 41 65 22 35 1001.9 1002.7 2.2
30/02:30pm 3.9 -5.1 2.6 91 0.6 W 39 57 21 31 1001.9 1002.7 2.2
30/02:04pm 3.9 -5.0 2.9 93 0.4 W 39 57 21 31 1002.0 1002.8 2.0
30/02:00pm 4.1 -5.2 2.9 92 0.5 W 41 57 22 31 1002.1 1002.9 2.0
30/01:30pm 4.7 -3.7 3.7 93 0.4 W 37 59 20 32 1002.0 1002.8 1.8
30/01:00pm 5.2 -3.6 3.4 88 0.8 WNW 39 67 21 36 1001.9 1002.7 1.2
30/12:30pm 5.6 -2.1 3.4 86 1.0 WNW 33 59 18 32 1001.7 1002.4 1.0
30/12:00pm 6.2 -3.1 2.8 79 1.5 WNW 41 67 22 36 1002.0 1002.8 1.0
30/11:30am 6.2 -3.0 3.7 84 1.1 WNW 41 74 22 40 1003.7 1004.5 1.0
30/11:22am 6.0 -3.1 4.0 87 0.9 NW 41 74 22 40 1003.7 1004.5 1.0
30/11:03am 5.4 -2.0 4.2 92 0.5 WNW 32 50 17 27 1003.9 1004.7 1.0
30/11:00am 5.5 -2.4 4.3 92 0.6 WNW 35 50 19 27 1004.0 1004.8 1.0
30/10:30am 5.4 -2.5 4.1 91 0.6 NW 35 56 19 30 1004.2 1005.0 0.0
30/10:00am 5.6 -2.4 3.6 87 0.9 NW 35 67 19 36 1004.3 1005.2 0.0
30/09:30am 5.2 -2.3 3.7 90 0.7 NW 32 57 17 31 1005.1 1006.0 0.0
30/09:04am 5.1 -1.6 3.4 89 0.8 NW 28 48 15 26 1005.8 1006.6 0.0
30/09:00am 5.3 -1.8 3.6 89 0.8 NW 30 44 16 24 1005.8 1006.6 0.2
30/08:30am 5.0 -2.6 3.0 87 0.9 NW 32 52 17 28 1006.1 1007.0 0.2
30/08:00am 4.8 -3.3 3.1 89 0.8 WNW 35 57 19 31 1006.3 1007.2 0.2
30/07:30am 4.5 -3.3 3.0 90 0.7 WNW 33 57 18 31 1006.5 1007.4 0.2
30/07:00am 4.3 -3.9 2.7 89 0.7 NW 35 67 19 36 1006.8 1007.7 0.2
30/06:30am 4.5 -3.2 2.5 87 0.9 NW 32 50 17 27 1007.2 1008.1 0.2
30/06:00am 4.3 -3.6 2.5 88 0.8 NW 33 54 18 29 1007.2 1008.1 0.2
30/05:30am 4.2 -3.5 2.4 88 0.8 WNW 32 50 17 27 1007.5 1008.5 0.2
30/05:00am 4.0 -3.0 2.2 88 0.8 NW 28 48 15 26 1008.2 1009.1 0.2
30/04:59am 4.0 -2.9 2.4 89 0.7 NW 28 48 15 26 1008.2 1009.1 0.2
30/04:30am 3.7 -2.5 2.2 90 0.6 NW 24 43 13 23 1008.6 1009.6 0.2
30/04:00am 3.6 -3.0 2.3 91 0.6 NW 26 43 14 23 1009.2 1010.2 0.2
30/03:40am 3.8 -3.1 2.6 92 0.5 NW 28 48 15 26 1009.3 1010.3 0.2
30/03:30am 3.7 -2.8 2.4 91 0.6 NW 26 41 14 22 1009.3 1010.3 0.2
30/03:00am 3.7 -2.1 2.5 92 0.5 NW 22 41 12 22 1009.8 1010.7 0.2
30/02:30am 3.5 -2.7 2.3 92 0.5 NW 24 41 13 22 1010.2 1011.2 0.2
30/02:00am 3.6 -2.6 2.3 91 0.6 WNW 24 43 13 23 1010.5 1011.5 0.2
30/01:30am 3.5 -2.7 2.3 92 0.5 NW 24 43 13 23 1010.9 1011.9 0.2
30/01:09am 3.6 -3.4 2.1 90 0.6 WNW 28 46 15 25 1010.8 1011.8 0.2
30/01:00am 3.6 -2.6 2.1 90 0.6 NW 24 41 13 22 1010.9 1011.9 0.2
30/12:30am 3.6 -2.6 2.1 90 0.6 NW 24 41 13 22 1011.3 1012.3 0.2
30/12:00am 3.3 -2.6 2.0 91 0.5 NW 22 35 12 19 1011.4 1012.4 0.2
 
Date/Time
EST
Temp
°C
App
Temp
°C
Dew
Point
Rel
Hum
%
Delta-T
°C
Wind Press
QNH
hPa
Press
MSL
hPa
Rain
since 9 am
mm
Dir
 
Spd
km/h
Gust
km/h
Spd
kts
Gust
kts
29/11:40pm 3.4 -3.6 1.9 90 0.6 WNW 28 50 15 27 1011.5 1012.5 0.2
29/11:30pm 3.3 -2.5 2.1 92 0.5 NW 22 35 12 19 1011.6 1012.7 0.2
29/11:00pm 3.4 -2.9 1.8 89 0.7 NW 24 41 13 22 1011.8 1012.8 0.2
29/10:30pm 3.0 -2.9 1.7 91 0.5 NW 22 37 12 20 1012.0 1013.0 0.2
29/10:00pm 3.2 -3.8 1.7 90 0.6 WNW 28 39 15 21 1012.1 1013.1 0.2
29/09:30pm 3.0 -3.3 1.5 90 0.6 NW 24 39 13 21 1012.3 1013.3 0.2
29/09:00pm 2.6 -3.4 1.3 91 0.5 WNW 22 37 12 20 1012.4 1013.5 0.0
29/08:30pm 2.7 -3.3 1.2 90 0.6 NW 22 41 12 22 1012.3 1013.3 0.0
29/08:00pm 2.4 -3.6 0.9 90 0.6 WNW 22 41 12 22 1012.4 1013.5 0.0
29/07:30pm 2.0 -3.1 0.8 92 0.5 NW 17 30 9 16 1012.4 1013.5 0.0
29/07:00pm 2.0 -3.5 0.7 91 0.5 NW 19 32 10 17 1012.2 1013.2 0.0
29/06:30pm 1.9 -4.2 0.7 92 0.5 WNW 22 35 12 19 1012.1 1013.1 0.0
29/06:00pm 1.7 -4.0 0.5 92 0.5 WNW 20 32 11 17 1011.9 1012.9 0.0
29/05:30pm 1.7 -4.4 0.5 92 0.5 WNW 22 33 12 18 1012.0 1013.0 0.0
29/05:00pm 1.3 -4.3 0.1 92 0.5 WNW 19 26 10 14 1011.9 1012.9 0.0
29/04:30pm 1.9 -4.2 0.7 92 0.5 WNW 22 33 12 18 1011.9 1012.9 0.0
29/04:00pm 2.2 -3.5 0.3 87 0.8 W 20 28 11 15 1011.6 1012.7 0.0
29/03:30pm 2.9 -2.8 0.6 85 0.9 WNW 20 28 11 15 1011.6 1012.7 0.0
29/03:00pm 2.9 -2.8 0.6 85 0.9 WNW 20 33 11 18 1011.6 1012.7 0.0
29/02:30pm 3.4 -2.2 1.0 84 1.0 WNW 20 30 11 16 1011.4 1012.4 0.0
29/02:00pm 3.2 -3.2 0.9 85 0.9 WNW 24 43 13 23 1011.3 1012.3 0.0
29/01:30pm 3.4 -4.2 0.8 83 1.1 W 30 41 16 22 1011.1 1012.1 0.0
29/01:00pm 3.6 -4.1 0.0 77 1.5 W 30 50 16 27 1010.9 1011.9 0.0
29/12:57pm 3.7 -4.0 -0.3 75 1.6 W 30 50 16 27 1011.0 1012.0 0.0
29/12:30pm 3.2 -4.1 0.3 81 1.2 WNW 28 41 15 22 1011.4 1012.4 0.0
29/12:00pm 3.3 -2.5 0.2 80 1.3 W 20 32 11 17 1011.3 1012.3 0.0
29/11:30am 2.9 -4.1 -0.2 80 1.2 WNW 26 39 14 21 1011.2 1012.2 0.0
29/11:00am 2.1 -6.1 -0.8 81 1.1 W 32 50 17 27 1011.0 1012.0 0.0
29/10:31am 1.6 -7.2 -1.1 82 1.0 W 35 54 19 29 1010.9 1011.9 0.0
29/10:30am 1.6 -7.6 -1.3 81 1.1 W 37 54 20 29 1010.9 1011.9 0.0
29/10:00am 1.1 -8.1 -1.5 83 1.0 W 37 50 20 27 1010.4 1011.4 0.0
29/09:30am 0.6 -7.8 -1.2 88 0.7 W 33 52 18 28 1010.2 1011.2 0.0
29/09:00am 0.3 -9.0 -1.8 86 0.8 W 37 56 20 30 1010.0 1011.0 12.2
29/08:58am 0.3 -8.6 -1.8 86 0.8 W 35 56 19 30 1010.0 1011.0 12.2
29/08:30am -0.4 -8.7 -2.0 89 0.6 W 32 43 17 23 1010.1 1011.1 12.2
29/08:00am -0.7 -8.3 -1.8 92 0.4 W 28 35 15 19 1009.9 1010.8 12.0
29/07:30am -1.3 -8.2 -2.3 93 0.3 W 24 35 13 19 1009.5 1010.5 12.0
29/07:00am -1.2 -8.9 -2.8 89 0.5 W 28 37 15 20 1008.8 1009.7 12.0
29/06:30am -1.2 -9.6 -2.5 91 0.4 W 32 43 17 23 1008.6 1009.6 12.0
29/06:08am -1.3 -10.2 -2.3 93 0.3 W 35 54 19 29 1008.4 1009.4 12.0
29/06:00am -1.1 -11.2 -2.2 92 0.3 W 41 56 22 30 1008.2 1009.1 12.0
29/05:41am -1.3 -9.8 -1.9 96 0.2 W 33 56 18 30 1008.1 1009.0 11.8
29/05:30am -0.8 -8.7 -1.2 97 0.1 WSW 30 46 16 25 1008.3 1009.3 11.8
29/05:00am -0.7 -10.0 -2.4 88 0.6 W 37 54 20 29 1007.3 1008.2 11.8
29/04:37am -0.6 -10.3 -2.6 86 0.7 W 39 57 21 31 1006.9 1007.8 11.8
29/04:30am -0.8 -10.2 -2.5 88 0.6 W 37 50 20 27 1006.8 1007.7 11.8
29/04:00am -0.5 -9.1 -2.2 88 0.6 W 33 56 18 30 1006.8 1007.7 11.6
29/03:30am -0.2 -8.7 -1.5 91 0.5 W 33 46 18 25 1006.8 1007.7 11.6
29/03:00am -0.1 -10.1 -1.4 91 0.5 W 41 63 22 34 1006.4 1007.3 11.6
29/02:38am -0.1 -7.5 -0.7 96 0.2 W 28 46 15 25 1006.8 1007.7 11.6
29/02:30am -0.2 -8.4 -0.9 95 0.3 W 32 48 17 26 1006.5 1007.4 11.6
29/02:00am 0.2 -7.2 -0.6 94 0.3 WNW 28 39 15 21 1006.3 1007.2 11.6
29/01:39am 0.5 -6.9 -0.4 94 0.3 WNW 28 46 15 25 1006.5 1007.4 11.4
29/01:30am 0.5 -6.1 -0.4 94 0.3 WNW 24 35 13 19 1006.3 1007.2 11.4
29/01:00am 0.5 -5.2 -0.4 94 0.3 WNW 19 30 10 16 1006.1 1007.0 11.4
29/12:30am 0.6 -6.3 0.0 96 0.2 WNW 26 39 14 21 1006.4 1007.3 11.0
29/12:00am 0.5 -6.5 -0.2 95 0.3 WNW 26 41 14 22 1006.5 1007.4 10.6
 
Date/Time
EST
Temp
°C
App
Temp
°C
Dew
Point
Rel
Hum
%
Delta-T
°C
Wind Press
QNH
hPa
Press
MSL
hPa
Rain
since 9 am
mm
Dir
 
Spd
km/h
Gust
km/h
Spd
kts
Gust
kts
28/11:30pm 1.3 -5.8 -1.3 83 1.0 WNW 26 39 14 21 1006.4 1007.3 10.6
28/11:07pm 1.3 -6.2 -1.3 83 1.0 WNW 28 48 15 26 1006.5 1007.4 10.6
28/11:00pm 1.4 -6.0 -1.0 84 0.9 WNW 28 44 15 24 1006.4 1007.3 10.6
28/10:30pm 1.3 -5.7 -0.5 88 0.7 WNW 26 39 14 21 1006.4 1007.3 10.6
28/10:23pm 1.3 -6.1 -0.6 87 0.7 WNW 28 46 15 25 1006.4 1007.3 10.6
28/10:00pm 1.6 -5.3 0.3 91 0.5 WNW 26 41 14 22 1006.8 1007.7 10.4
28/09:30pm 2.1 -3.6 0.3 88 0.7 NW 20 37 11 20 1006.1 1007.0 10.4
28/09:00pm 2.1 -5.1 0.9 92 0.5 WNW 28 43 15 23 1006.3 1007.2 10.4
28/08:30pm 2.6 -3.5 0.5 86 0.8 NW 22 35 12 19 1006.2 1007.1 10.2
28/08:00pm 2.3 -3.3 1.0 91 0.5 NW 20 35 11 19 1006.2 1007.1 10.2
28/07:30pm 2.3 -3.8 0.7 89 0.6 WNW 22 32 12 17 1006.0 1006.9 10.2
28/07:00pm 2.4 -4.0 1.1 91 0.5 WNW 24 33 13 18 1006.1 1007.0 10.2
28/06:30pm 3.3 -3.7 2.1 92 0.5 WNW 28 44 15 24 1006.2 1007.1 10.2
28/06:00pm 3.9 -0.8 2.9 93 0.4 NW 17 32 9 17 1005.5 1006.4 10.2
28/05:30pm 3.9 -2.2 2.9 93 0.4 NW 24 37 13 20 1005.5 1006.4 10.2
28/05:00pm 3.0 -1.9 2.0 93 0.4 NW 17 30 9 16 1005.3 1006.2 10.2
28/04:30pm 3.4 -3.5 2.4 93 0.4 WNW 28 46 15 25 1005.5 1006.4 8.0
28/04:00pm 5.6 -1.2 3.3 85 1.0 NW 28 52 15 28 1005.3 1006.2 4.4
28/03:30pm 6.3 -1.1 3.8 84 1.1 NW 32 50 17 27 1004.8 1005.6 4.4
28/03:00pm 6.3 -1.7 3.8 84 1.1 NW 35 61 19 33 1004.5 1005.4 4.4
28/02:34pm 6.0 -0.6 4.3 89 0.8 NW 28 50 15 27 1005.0 1005.8 4.4
28/02:30pm 6.0 -0.2 4.3 89 0.8 NW 26 48 14 26 1005.1 1006.0 4.4
28/02:04pm 6.6 0.0 4.1 84 1.1 WNW 28 48 15 26 1005.5 1006.4 4.4
28/02:00pm 6.7 0.4 4.0 83 1.2 NW 26 46 14 25 1005.5 1006.4 4.4
28/01:45pm 6.9 0.3 4.2 83 1.2 NW 28 50 15 27 1006.0 1006.9 4.4
28/01:30pm 6.6 0.5 4.6 87 0.9 NW 26 46 14 25 1006.3 1007.2 4.4
28/01:00pm 6.6 -0.8 4.9 89 0.8 WNW 33 52 18 28 1006.5 1007.4 4.4
28/12:30pm 6.7 -0.1 5.3 91 0.7 NNW 30 52 16 28 1006.8 1007.7 3.0
28/12:29pm 6.7 0.3 5.3 91 0.7 NNW 28 46 15 25 1006.7 1007.5 2.8
28/12:00pm 6.5 0.9 5.3 92 0.6 NNW 24 37 13 20 1007.0 1007.9 1.6
28/11:31am 7.7 1.4 5.8 88 0.9 NW 28 46 15 25 1007.7 1008.6 1.2
28/11:30am 7.7 1.0 5.7 87 1.0 NW 30 46 16 25 1007.7 1008.6 1.2
28/11:00am 6.6 0.1 4.9 89 0.8 NW 28 54 15 29 1008.5 1009.5 1.2
28/10:30am 5.5 -2.6 3.5 87 0.9 NW 35 57 19 31 1009.2 1010.2 1.0
28/10:06am 6.1 -0.4 4.7 91 0.6 NW 28 48 15 26 1009.6 1010.6 0.4
28/10:00am 6.1 0.0 4.7 91 0.6 NW 26 48 14 26 1009.5 1010.5 0.2
28/09:34am 6.0 -0.6 4.3 89 0.8 NW 28 52 15 28 1009.5 1010.5 0.0
28/09:30am 6.0 0.2 4.5 90 0.7 NNW 24 46 13 25 1009.6 1010.6 0.0
28/09:00am 5.8 -0.1 4.0 88 0.8 NW 24 41 13 22 1009.9 1010.8 1.8
28/08:30am 6.0 -0.7 3.5 84 1.1 NW 28 50 15 27 1010.1 1011.1 1.8
28/08:09am 5.8 -0.9 3.5 85 1.0 NW 28 48 15 26 1010.3 1011.3 1.8
28/08:00am 5.3 -1.1 3.3 87 0.9 NW 26 43 14 23 1010.2 1011.2 1.8
28/07:30am 5.5 -0.8 3.5 87 0.9 NW 26 41 14 22 1010.0 1011.0 1.8
28/07:00am 5.7 -0.1 4.2 90 0.7 WNW 24 39 13 21 1010.2 1011.2 1.8
28/06:30am 5.7 0.2 4.2 90 0.7 NW 22 41 12 22 1010.1 1011.1 1.8
28/06:00am 5.5 -0.8 4.0 90 0.7 NW 26 43 14 23 1010.0 1011.0 1.6
28/05:46am 5.3 -1.3 4.0 91 0.6 NW 28 46 15 25 1010.1 1011.1 1.6
28/05:30am 5.1 -0.5 3.6 90 0.7 NW 22 41 12 22 1010.2 1011.2 1.6
28/05:00am 4.9 -1.5 3.1 88 0.8 NW 26 44 14 24 1010.5 1011.5 1.6
28/04:49am 5.1 -1.7 3.1 87 0.9 NW 28 48 15 26 1010.6 1011.6 1.6
28/04:30am 5.3 -0.3 3.5 88 0.8 NW 22 35 12 19 1010.9 1011.9 1.6
28/04:00am 5.2 -0.8 3.5 89 0.8 WNW 24 39 13 21 1011.1 1012.1 1.6
28/03:30am 5.5 -0.4 3.8 89 0.8 NW 24 39 13 21 1011.0 1012.0 1.6
28/03:00am 5.8 0.0 4.3 90 0.7 NW 24 44 13 24 1011.4 1012.4 1.6
28/02:30am 6.5 1.8 5.3 92 0.6 NW 19 28 10 15 1011.8 1012.8 1.6
28/02:00am 6.4 2.9 5.4 93 0.5 NW 13 22 7 12 1011.8 1012.8 1.2
28/01:30am 6.6 1.7 5.2 91 0.7 NNW 20 41 11 22 1011.8 1012.8 1.0
28/01:00am 6.0 0.7 4.8 92 0.6 NW 22 37 12 20 1012.1 1013.1 1.0

Other Formats:

Comma delimited format used in spreadsheet applications
http://www.bom.gov.au/fwo/IDT60801/IDT60801.95959.axf

JavaScript Object Notation format (JSON) in row-major order
http://www.bom.gov.au/fwo/IDT60801/IDT60801.95959.json